Time;durP1;ratioP1;P1;durP2;ratioP2;P2;SDS_P1;SDS_P2;PMS_P1;PMS_P2;Temp;Humidity;BMP_temperature;BMP_pressure;BME280_temperature;BME280_humidity;BME280_pressure;Samples;Min_cycle;Max_cycle;Signal;HPM_P1;HPM_P2
2022/11/12 00:01:43;;;;;;;22.03;15.30;;;4.40;1.00;;;;;;4883731;29;20238;-65
2022/11/12 00:04:28;;;;;;;20.47;13.87;;;4.30;1.00;;;;;;4886742;29;20243;-65
2022/11/12 00:07:14;;;;;;;19.97;13.87;;;4.30;1.00;;;;;;4897905;29;20449;-66
2022/11/12 00:09:59;;;;;;;20.43;12.93;;;4.20;1.00;;;;;;4896799;29;20669;-66
2022/11/12 00:12:45;;;;;;;17.33;12.03;;;4.20;1.00;;;;;;4900995;29;20738;-65
2022/11/12 00:15:30;;;;;;;26.40;14.77;;;4.20;1.00;;;;;;4895322;29;20215;-64
2022/11/12 00:18:16;;;;;;;17.97;13.37;;;4.20;1.00;;;;;;4886145;29;22770;-66
2022/11/12 00:21:01;;;;;;;20.83;12.83;;;4.20;1.00;;;;;;4883317;29;20220;-64
2022/11/12 00:23:47;;;;;;;18.60;12.90;;;4.20;1.00;;;;;;4900195;29;20207;-64
2022/11/12 00:26:33;;;;;;;20.40;13.07;;;4.20;1.00;;;;;;4886255;29;20215;-64
2022/11/12 00:29:18;;;;;;;19.60;12.23;;;4.00;1.00;;;;;;4894755;29;20200;-64
2022/11/12 00:32:07;;;;;;;20.57;14.17;;;4.20;99.90;;;;;;4901493;29;20204;-64
2022/11/12 00:34:53;;;;;;;24.00;14.83;;;4.20;99.90;;;;;;4899299;29;20912;-63
2022/11/12 00:37:38;;;;;;;24.03;15.00;;;4.10;99.90;;;;;;4883272;29;20642;-64
2022/11/12 00:40:24;;;;;;;25.73;16.60;;;4.10;99.90;;;;;;4885155;29;20690;-64
2022/11/12 00:43:10;;;;;;;27.73;17.00;;;4.00;99.90;;;;;;4899726;29;20252;-65
2022/11/12 00:45:55;;;;;;;24.90;16.87;;;4.00;99.90;;;;;;4896524;29;20263;-64
2022/11/12 00:48:41;;;;;;;24.60;16.00;;;4.00;99.90;;;;;;4886728;29;20563;-64
2022/11/12 00:51:26;;;;;;;19.73;11.93;;;4.00;99.90;;;;;;4896492;29;20252;-63
2022/11/12 00:54:12;;;;;;;14.80;11.70;;;4.00;99.90;;;;;;4900375;29;20267;-63
2022/11/12 00:56:57;;;;;;;19.23;12.30;;;4.00;1.00;;;;;;4900471;29;20287;-63
2022/11/12 00:59:43;;;;;;;19.23;12.43;;;3.90;1.00;;;;;;4898047;29;20205;-62
2022/11/12 01:02:29;;;;;;;16.33;10.10;;;3.90;1.00;;;;;;4897410;29;20219;-62
2022/11/12 01:05:14;;;;;;;15.97;10.60;;;3.90;1.00;;;;;;4897019;29;20341;-63
2022/11/12 01:08:00;;;;;;;17.03;11.07;;;3.80;1.00;;;;;;4899994;29;20212;-62
2022/11/12 01:10:45;;;;;;;16.27;10.00;;;4.00;1.00;;;;;;4887775;29;20215;-64
2022/11/12 01:13:31;;;;;;;15.57;10.40;;;4.00;1.00;;;;;;4899701;29;20231;-63
2022/11/12 01:16:19;;;;;;;13.67;7.40;;;4.00;1.00;;;;;;4899543;29;20555;-62
2022/11/12 01:19:07;;;;;;;16.13;10.40;;;3.90;1.00;;;;;;4896101;29;20204;-66
2022/11/12 01:21:53;;;;;;;15.10;10.50;;;4.00;1.00;;;;;;4897484;29;20232;-63
2022/11/12 01:24:38;;;;;;;18.53;11.87;;;4.10;1.00;;;;;;4898611;29;20452;-64
2022/11/12 01:27:24;;;;;;;12.93;8.53;;;4.20;58.40;;;;;;4899577;29;20196;-64
2022/11/12 01:30:10;;;;;;;11.27;7.20;;;4.20;1.00;;;;;;4896706;29;20201;-65
2022/11/12 01:32:55;;;;;;;14.57;9.67;;;3.60;87.80;;;;;;4896786;29;20227;-64
2022/11/12 01:35:41;;;;;;;13.90;9.70;;;3.60;99.90;;;;;;4895882;29;20337;-64
2022/11/12 01:38:26;;;;;;;15.30;7.30;;;3.80;1.00;;;;;;4897852;29;20211;-65
2022/11/12 01:41:19;;;;;;;17.93;7.80;;;3.80;99.90;;;;;;4885600;29;20253;-66
2022/11/12 01:44:16;;;;;;;12.73;7.30;;;3.60;65.80;;;;;;4899451;29;21322;-64
2022/11/12 01:47:18;;;;;;;16.30;7.07;;;3.50;9.60;;;;;;4885731;29;20203;-65
2022/11/12 01:50:14;;;;;;;10.17;6.87;;;3.40;99.90;;;;;;4898407;29;20521;-66
2022/11/12 01:53:07;;;;;;;15.97;6.70;;;3.40;99.90;;;;;;4896998;29;20211;-65
2022/11/12 01:55:55;;;;;;;9.07;6.27;;;3.40;62.30;;;;;;4880240;29;20276;-65
2022/11/12 01:58:41;;;;;;;9.07;5.80;;;3.50;52.60;;;;;;4896238;29;20558;-66
2022/11/12 02:01:27;;;;;;;8.37;5.83;;;3.50;22.60;;;;;;4891848;29;20754;-66
2022/11/12 02:04:13;;;;;;;9.63;5.40;;;3.50;1.00;;;;;;4884662;29;20282;-66
2022/11/12 02:07:00;;;;;;;8.13;5.67;;;3.50;1.00;;;;;;4896919;29;20222;-66
2022/11/12 02:09:46;;;;;;;17.63;9.70;;;3.40;1.00;;;;;;4894723;29;20208;-68
2022/11/12 02:15:38;;;;;;;13.50;8.73;;;3.50;1.00;;;;;;4898756;29;20335;-65
2022/11/12 02:18:23;;;;;;;21.97;11.47;;;3.50;1.00;;;;;;4885486;29;20279;-63
2022/11/12 02:21:09;;;;;;;17.47;10.53;;;3.50;1.00;;;;;;4893435;29;20808;-65
2022/11/12 02:23:57;;;;;;;16.93;9.67;;;3.50;1.00;;;;;;4885111;29;20211;-66
2022/11/12 02:26:47;;;;;;;13.67;9.23;;;3.50;1.00;;;;;;4897287;29;20287;-66
2022/11/12 02:29:33;;;;;;;17.23;9.63;;;3.50;1.00;;;;;;4897093;29;20204;-65
2022/11/12 02:32:18;;;;;;;16.27;9.10;;;3.40;1.00;;;;;;4898928;29;20303;-66
2022/11/12 02:35:04;;;;;;;13.27;8.10;;;3.40;1.00;;;;;;4893625;29;20231;-66
2022/11/12 02:37:49;;;;;;;9.60;6.77;;;3.30;1.00;;;;;;4862593;29;20219;-66
2022/11/12 02:40:35;;;;;;;8.43;5.70;;;3.40;1.00;;;;;;4878938;29;20208;-64
2022/11/12 02:43:20;;;;;;;11.57;6.30;;;3.10;1.00;;;;;;4885816;29;20207;-65
2022/11/12 02:46:06;;;;;;;11.27;5.90;;;3.00;9.40;;;;;;4897367;29;20211;-66
2022/11/12 02:48:52;;;;;;;8.70;6.00;;;3.10;1.00;;;;;;4890186;29;20778;-65
2022/11/12 02:51:38;;;;;;;8.30;5.73;;;3.10;2.40;;;;;;4901454;29;20241;-66
2022/11/12 02:54:23;;;;;;;7.10;4.60;;;3.10;1.00;;;;;;4900584;29;20329;-66
2022/11/12 02:57:08;;;;;;;8.70;4.83;;;3.10;1.00;;;;;;4902352;29;20728;-65
2022/11/12 02:59:54;;;;;;;8.37;5.27;;;2.80;99.90;;;;;;4898531;29;20210;-65
2022/11/12 03:02:41;;;;;;;5.67;5.00;;;2.60;99.90;;;;;;4899212;29;20237;-65
2022/11/12 03:05:30;;;;;;;7.57;4.63;;;2.60;1.00;;;;;;4900185;29;20263;-64
2022/11/12 03:08:15;;;;;;;6.50;5.00;;;2.50;99.90;;;;;;4902039;29;20200;-65
2022/11/12 03:11:12;;;;;;;6.07;4.60;;;2.40;99.90;;;;;;4904079;29;20200;-65
2022/11/12 03:13:58;;;;;;;8.07;5.10;;;2.40;1.00;;;;;;4902716;29;20220;-66
2022/11/12 03:16:43;;;;;;;8.83;4.77;;;2.50;1.00;;;;;;4883249;29;20204;-65
2022/11/12 03:19:29;;;;;;;7.63;5.07;;;2.40;1.00;;;;;;4886280;29;20323;-65
2022/11/12 03:22:14;;;;;;;8.53;5.33;;;2.50;1.00;;;;;;4902900;29;20239;-66
2022/11/12 03:25:00;;;;;;;7.83;5.47;;;2.60;1.00;;;;;;4887597;29;20204;-64
2022/11/12 03:27:45;;;;;;;7.50;4.60;;;2.70;99.90;;;;;;4901406;29;20727;-66
2022/11/12 03:30:34;;;;;;;7.03;4.73;;;2.80;99.90;;;;;;4897595;29;20204;-66
2022/11/12 03:33:23;;;;;;;11.00;5.07;;;2.80;99.90;;;;;;4902843;29;20199;-65
2022/11/12 03:36:09;;;;;;;6.87;4.93;;;2.90;99.90;;;;;;4896877;29;20308;-65
2022/11/12 03:38:54;;;;;;;5.73;4.43;;;2.90;99.90;;;;;;4901577;29;20583;-65
2022/11/12 03:41:39;;;;;;;6.40;4.67;;;2.90;94.00;;;;;;4897752;29;20340;-65
2022/11/12 03:44:25;;;;;;;5.90;4.67;;;2.90;99.90;;;;;;4901793;29;20202;-66
2022/11/12 03:47:11;;;;;;;5.60;4.50;;;2.90;99.90;;;;;;4899726;29;20211;-67
2022/11/12 03:49:56;;;;;;;6.10;4.50;;;2.90;92.80;;;;;;4895036;29;20215;-66
2022/11/12 03:52:47;;;;;;;12.37;5.03;;;2.80;1.00;;;;;;4884173;29;20216;-66
2022/11/12 03:55:32;;;;;;;10.37;4.63;;;2.50;99.90;;;;;;4900717;29;20203;-64
2022/11/12 03:58:18;;;;;;;10.73;5.80;;;2.30;1.00;;;;;;4902456;29;20595;-69
2022/11/12 04:01:03;;;;;;;10.57;5.30;;;2.40;1.00;;;;;;4898720;29;20215;-69
2022/11/12 04:03:49;;;;;;;5.87;4.80;;;2.50;1.00;;;;;;4888500;29;20254;-69
2022/11/12 04:09:39;;;;;;;7.27;4.63;;;2.50;1.00;;;;;;4894727;29;20285;-68
2022/11/12 04:15:28;;;;;;;9.47;5.30;;;2.60;1.00;;;;;;4899635;29;20578;-65
2022/11/12 04:27:33;;;;;;;5.90;4.57;;;2.60;99.90;;;;;;4894452;29;20244;-67
2022/11/12 04:30:19;;;;;;;6.23;4.80;;;2.60;99.90;;;;;;4899924;29;20233;-65
2022/11/12 04:33:04;;;;;;;8.80;5.13;;;2.60;99.90;;;;;;4899141;29;20204;-65
2022/11/12 04:35:50;;;;;;;6.43;4.73;;;2.60;99.90;;;;;;4898960;29;20204;-66
2022/11/12 04:38:35;;;;;;;6.83;5.03;;;2.60;99.90;;;;;;4901733;29;20196;-66
2022/11/12 04:47:38;;;;;;;8.07;5.27;;;2.60;99.90;;;;;;4900146;29;20206;-68
2022/11/12 04:50:23;;;;;;;8.43;4.80;;;2.60;99.90;;;;;;4899634;29;20216;-68
2022/11/12 04:53:09;;;;;;;8.00;6.00;;;2.60;99.90;;;;;;4899296;29;20208;-68
2022/11/12 04:55:56;;;;;;;12.10;6.97;;;2.70;99.90;;;;;;4899244;29;20204;-68
2022/11/12 04:58:42;;;;;;;9.17;5.13;;;2.70;99.90;;;;;;4897178;29;20303;-68
2022/11/12 05:01:27;;;;;;;13.37;7.00;;;2.60;99.90;;;;;;4898899;29;20216;-67
2022/11/12 05:04:13;;;;;;;8.00;6.20;;;2.60;83.20;;;;;;4898821;29;20392;-67
2022/11/12 05:06:59;;;;;;;10.13;5.80;;;2.70;99.90;;;;;;4896786;29;20667;-67
2022/11/12 05:09:45;;;;;;;8.40;4.97;;;2.60;99.90;;;;;;4903794;29;20219;-74
2022/11/12 05:12:30;;;;;;;6.10;4.77;;;2.40;99.90;;;;;;4898465;29;20247;-66
2022/11/12 05:15:16;;;;;;;9.30;5.10;;;2.40;99.90;;;;;;4899830;29;20341;-65
2022/11/12 05:18:01;;;;;;;7.20;5.10;;;2.40;99.90;;;;;;4897336;29;20204;-67
2022/11/12 05:20:50;;;;;;;8.57;5.07;;;2.50;99.90;;;;;;4897694;29;20200;-67
2022/11/12 05:23:35;;;;;;;9.47;5.47;;;2.50;99.90;;;;;;4899673;29;20236;-66
2022/11/12 05:26:21;;;;;;;10.50;5.00;;;2.50;99.90;;;;;;4896631;29;20284;-64
2022/11/12 05:29:07;;;;;;;6.13;4.90;;;2.60;99.90;;;;;;4896070;29;20252;-64
2022/11/12 05:31:54;;;;;;;7.50;4.90;;;2.50;99.90;;;;;;4885185;29;20204;-66
2022/11/12 05:34:39;;;;;;;6.73;4.93;;;2.50;99.90;;;;;;4884390;29;20684;-65
2022/11/12 05:37:24;;;;;;;6.63;4.70;;;2.50;99.90;;;;;;4901225;29;20256;-67
2022/11/12 05:40:10;;;;;;;8.10;4.70;;;2.50;99.90;;;;;;4903075;29;20685;-67
2022/11/12 05:42:56;;;;;;;10.27;5.03;;;2.60;99.90;;;;;;4886947;29;20223;-66
2022/11/12 05:45:42;;;;;;;5.97;4.60;;;2.60;99.90;;;;;;4900477;29;20204;-66
2022/11/12 05:48:28;;;;;;;8.60;5.37;;;2.60;99.90;;;;;;4883742;29;20211;-65
2022/11/12 05:51:14;;;;;;;7.60;5.57;;;2.40;1.00;;;;;;4897743;29;20923;-68
2022/11/12 05:53:59;;;;;;;8.40;6.07;;;2.20;43.90;;;;;;4897158;29;20296;-67
2022/11/12 05:56:45;;;;;;;7.87;5.70;;;2.00;1.00;;;;;;4897914;29;20225;-66
2022/11/12 05:59:31;;;;;;;13.53;5.70;;;1.90;1.00;;;;;;4896938;29;20211;-66
2022/11/12 06:02:16;;;;;;;13.10;5.43;;;2.00;1.00;;;;;;4899205;29;20275;-67
2022/11/12 06:05:02;;;;;;;8.83;6.03;;;2.10;1.00;;;;;;4882051;29;20307;-67
2022/11/12 06:07:47;;;;;;;9.93;5.47;;;2.20;1.00;;;;;;4898443;29;20211;-66
2022/11/12 06:10:33;;;;;;;8.00;5.33;;;2.20;1.00;;;;;;4899228;29;20774;-68
2022/11/12 06:13:20;;;;;;;6.10;5.50;;;2.20;1.00;;;;;;4901182;29;20290;-68
2022/11/12 06:16:06;;;;;;;7.37;5.93;;;2.30;1.00;;;;;;4898115;29;20255;-67
2022/11/12 06:18:52;;;;;;;11.20;6.67;;;2.30;1.00;;;;;;4884630;29;20288;-66
2022/11/12 06:21:37;;;;;;;9.37;6.27;;;2.30;1.00;;;;;;4898041;29;20208;-67
2022/11/12 06:24:23;;;;;;;12.57;6.93;;;2.40;1.00;;;;;;4899206;29;20699;-65
2022/11/12 06:27:08;;;;;;;15.93;9.03;;;2.30;1.00;;;;;;4898460;29;20333;-67
2022/11/12 06:29:54;;;;;;;12.77;9.23;;;2.40;1.00;;;;;;4897460;29;20191;-68
2022/11/12 06:32:40;;;;;;;15.10;10.43;;;2.40;1.00;;;;;;4902228;29;20235;-68
2022/11/12 06:35:25;;;;;;;12.30;8.90;;;2.40;1.00;;;;;;4897998;29;20225;-69
2022/11/12 06:38:11;;;;;;;11.03;9.23;;;2.40;1.00;;;;;;4900332;29;20220;-68
2022/11/12 06:40:57;;;;;;;15.17;8.97;;;2.50;1.00;;;;;;4896864;29;20553;-67
2022/11/12 06:43:42;;;;;;;11.27;7.70;;;2.50;1.00;;;;;;4904285;29;20239;-67
2022/11/12 06:46:28;;;;;;;12.90;7.87;;;2.50;1.00;;;;;;4901701;29;20216;-66
2022/11/12 06:49:13;;;;;;;10.87;7.77;;;2.50;99.90;;;;;;4901788;29;20583;-69
2022/11/12 06:51:58;;;;;;;10.27;6.93;;;2.50;99.90;;;;;;4900552;29;20706;-69
2022/11/12 06:54:44;;;;;;;8.57;6.60;;;2.40;99.90;;;;;;4902985;29;20215;-68
2022/11/12 06:57:30;;;;;;;8.73;7.13;;;2.50;99.90;;;;;;4902151;29;20332;-69
2022/11/12 07:00:16;;;;;;;9.20;6.43;;;2.60;99.90;;;;;;4899903;29;20270;-69
2022/11/12 07:03:06;;;;;;;10.53;6.90;;;2.70;99.90;;;;;;4894520;29;20224;-68
2022/11/12 07:05:52;;;;;;;9.23;6.70;;;2.70;99.90;;;;;;4892056;29;20739;-69
2022/11/12 07:08:38;;;;;;;10.70;7.57;;;2.80;99.90;;;;;;4887950;29;20231;-67
2022/11/12 07:11:23;;;;;;;9.57;7.53;;;2.80;1.00;;;;;;4898650;29;20204;-68
2022/11/12 07:14:09;;;;;;;9.50;7.23;;;2.80;1.00;;;;;;4896319;29;20842;-68
2022/11/12 07:16:54;;;;;;;14.20;6.90;;;2.60;1.00;;;;;;4902937;29;20775;-69
2022/11/12 07:19:40;;;;;;;11.13;8.40;;;2.60;99.80;;;;;;4902673;29;20199;-67
2022/11/12 07:22:25;;;;;;;13.20;7.20;;;2.70;32.70;;;;;;4890919;29;20228;-69
2022/11/12 07:25:11;;;;;;;11.90;6.73;;;2.50;1.00;;;;;;4900267;29;20203;-68
2022/11/12 07:27:57;;;;;;;9.87;7.13;;;2.50;99.90;;;;;;4879672;29;20199;-69
2022/11/12 07:30:42;;;;;;;10.03;6.57;;;2.70;99.90;;;;;;4901509;29;20207;-68
2022/11/12 07:33:29;;;;;;;12.40;8.00;;;2.90;99.90;;;;;;4888274;29;21159;-69
2022/11/12 07:36:17;;;;;;;12.90;7.10;;;3.00;99.90;;;;;;4888497;29;20206;-69
2022/11/12 07:39:03;;;;;;;14.20;8.50;;;3.10;99.90;;;;;;4900261;29;20559;-67
2022/11/12 07:41:48;;;;;;;14.57;9.23;;;3.40;99.90;;;;;;4901751;29;20219;-67
2022/11/12 07:44:34;;;;;;;16.43;10.87;;;3.40;99.90;;;;;;4903779;29;20344;-68
2022/11/12 07:47:19;;;;;;;20.40;10.47;;;3.60;92.00;;;;;;4885944;29;20200;-67
2022/11/12 07:50:05;;;;;;;17.87;11.67;;;3.70;1.00;;;;;;4883113;29;20276;-69
2022/11/12 07:52:50;;;;;;;14.87;10.53;;;3.70;1.00;;;;;;4902029;29;20211;-68
2022/11/12 07:55:36;;;;;;;12.57;9.43;;;3.70;1.00;;;;;;4902232;29;20211;-69
2022/11/12 07:58:22;;;;;;;20.57;10.90;;;3.70;1.00;;;;;;4886602;29;20215;-69
2022/11/12 08:01:15;;;;;;;16.10;11.37;;;3.80;1.00;;;;;;4887166;29;20210;-68
2022/11/12 08:04:03;;;;;;;15.03;11.17;;;3.90;1.00;;;;;;4899479;29;20231;-68
2022/11/12 08:06:49;;;;;;;13.37;10.57;;;3.90;1.00;;;;;;4889132;29;20216;-68
2022/11/12 08:09:35;;;;;;;15.33;10.53;;;3.90;1.00;;;;;;4901842;29;20245;-68
2022/11/12 08:12:20;;;;;;;12.17;9.03;;;3.90;1.00;;;;;;4899956;29;20607;-69
2022/11/12 08:15:06;;;;;;;12.23;8.47;;;3.90;1.00;;;;;;4894334;29;20198;-68
2022/11/12 08:17:51;;;;;;;10.80;8.37;;;4.10;1.00;;;;;;4900097;29;20256;-69
2022/11/12 08:20:37;;;;;;;11.33;8.33;;;4.10;1.00;;;;;;4898718;29;20247;-69
2022/11/12 08:23:22;;;;;;;11.20;8.97;;;4.30;1.00;;;;;;4900869;29;20251;-69
2022/11/12 08:26:11;;;;;;;14.40;10.37;;;4.30;1.00;;;;;;4885034;29;20219;-68
2022/11/12 08:28:56;;;;;;;14.97;11.40;;;4.40;1.00;;;;;;4900658;29;20406;-68
2022/11/12 08:31:42;;;;;;;10.97;8.67;;;4.50;1.00;;;;;;4892139;29;20300;-68
2022/11/12 08:34:27;;;;;;;7.63;6.80;;;4.70;1.00;;;;;;4899254;29;20341;-70
2022/11/12 08:37:13;;;;;;;11.10;8.20;;;5.00;1.00;;;;;;4899899;29;20449;-68
2022/11/12 08:39:58;;;;;;;17.03;11.40;;;5.50;99.90;;;;;;4898903;29;20207;-68
2022/11/12 08:42:44;;;;;;;16.97;10.83;;;5.90;99.90;;;;;;4897527;29;20955;-68
2022/11/12 08:45:32;;;;;;;19.80;12.73;;;6.30;99.90;;;;;;4901083;29;20226;-69
2022/11/12 08:48:17;;;;;;;29.83;18.50;;;6.80;19.50;;;;;;4898614;29;20272;-68
2022/11/12 08:51:04;;;;;;;25.77;16.13;;;7.30;1.00;;;;;;4886701;29;20220;-69
2022/11/12 08:53:49;;;;;;;10.67;5.93;;;7.70;1.00;;;;;;4886544;29;20224;-69
2022/11/12 08:56:35;;;;;;;11.53;8.47;;;8.00;1.00;;;;;;4900107;29;20203;-69
2022/11/12 08:59:21;;;;;;;7.83;5.07;;;10.40;1.00;;;;;;4899107;29;20214;-69
2022/11/12 09:02:11;;;;;;;9.40;5.77;;;16.80;1.00;;;;;;4900015;29;20200;-69
2022/11/12 09:04:57;;;;;;;6.13;4.60;;;19.60;1.00;;;;;;4897678;29;20242;-68
2022/11/12 09:07:42;;;;;;;8.77;6.20;;;18.40;1.00;;;;;;4900781;29;20287;-68
2022/11/12 09:10:36;;;;;;;6.30;4.80;;;16.70;1.00;;;;;;4895906;29;20232;-68
2022/11/12 09:13:21;;;;;;;7.50;4.57;;;15.00;1.00;;;;;;4897490;29;20248;-68
2022/11/12 09:16:09;;;;;;;6.10;5.03;;;14.20;1.00;;;;;;4895474;29;20563;-67
2022/11/12 09:18:54;;;;;;;7.57;5.07;;;13.90;1.00;;;;;;4885737;29;20255;-67
2022/11/12 09:21:40;;;;;;;5.90;4.72;;;14.00;1.00;;;;;;4881046;29;20262;-68
2022/11/12 09:24:26;;;;;;;5.55;4.05;;;18.20;1.00;;;;;;4898248;29;20679;-68
2022/11/12 09:27:11;;;;;;;7.50;4.63;;;21.30;1.00;;;;;;4887986;29;20222;-68
2022/11/12 09:29:57;;;;;;;7.85;5.82;;;23.30;1.00;;;;;;4903765;29;20280;-67
2022/11/12 09:32:42;;;;;;;6.63;5.53;;;24.60;1.00;;;;;;4902800;29;20208;-67
2022/11/12 09:35:28;;;;;;;7.60;4.88;;;24.90;1.00;;;;;;4900851;29;20346;-67
2022/11/12 09:38:15;;;;;;;6.65;4.60;;;25.10;1.00;;;;;;4889349;29;20771;-67
2022/11/12 09:41:23;;;;;;;6.50;5.80;;;24.70;1.00;;;;;;4904230;29;20216;-67
2022/11/12 09:44:13;;;;;;;5.32;4.40;;;24.80;1.00;;;;;;4901714;29;20226;-67
2022/11/12 09:47:01;;;;;;;4.15;3.42;;;26.20;1.00;;;;;;4901344;29;20198;-68
2022/11/12 09:50:02;;;;;;;4.78;3.17;;;27.40;1.00;;;;;;4900298;29;20229;-67
2022/11/12 09:52:54;;;;;;;4.38;3.20;;;25.60;1.00;;;;;;4899987;29;20208;-67
2022/11/12 09:55:44;;;;;;;4.22;3.53;;;25.90;1.00;;;;;;4892504;29;20680;-67
2022/11/12 09:58:30;;;;;;;4.93;3.13;;;27.60;1.00;;;;;;4872898;29;20204;-67
2022/11/12 10:01:23;;;;;;;4.85;3.40;;;27.60;1.00;;;;;;4900012;29;20207;-67
2022/11/12 10:04:12;;;;;;;4.78;3.28;;;27.10;1.00;;;;;;4899479;29;20483;-68
2022/11/12 10:07:04;;;;;;;4.75;3.15;;;26.60;1.00;;;;;;4890418;29;20636;-67
2022/11/12 10:10:07;;;;;;;3.67;2.65;;;27.20;1.00;;;;;;4898050;29;20208;-67
2022/11/12 10:13:11;;;;;;;3.65;3.30;;;26.60;1.00;;;;;;4899080;29;20234;-67
2022/11/12 10:19:25;;;;;;;3.50;2.83;;;27.50;1.00;;;;;;4898343;29;20647;-67
2022/11/12 10:22:31;;;;;;;6.50;3.40;;;28.40;1.00;;;;;;4899822;29;20199;-67
2022/11/12 10:25:18;;;;;;;6.10;3.00;;;28.30;1.00;;;;;;4900341;29;20588;-66
2022/11/12 10:28:23;;;;;;;3.65;2.90;;;26.70;1.00;;;;;;4900097;29;20230;-66
2022/11/12 10:31:15;;;;;;;3.97;3.58;;;25.50;1.00;;;;;;4897510;29;20208;-66
2022/11/12 10:34:15;;;;;;;5.47;3.45;;;27.10;1.00;;;;;;4899028;29;20216;-66
2022/11/12 10:37:06;;;;;;;5.63;3.75;;;28.20;1.00;;;;;;4900434;29;20207;-65
2022/11/12 10:39:52;;;;;;;4.45;3.53;;;28.90;1.00;;;;;;4899658;29;20208;-66
2022/11/12 10:42:59;;;;;;;7.03;3.20;;;29.80;1.00;;;;;;4888128;29;20691;-65
2022/11/12 10:45:47;;;;;;;5.57;3.50;;;29.80;1.00;;;;;;4902319;29;20282;-66
2022/11/12 10:48:32;;;;;;;6.38;3.70;;;30.40;1.00;;;;;;4891639;29;20203;-66
2022/11/12 10:51:25;;;;;;;6.22;3.85;;;30.20;1.00;;;;;;4886544;29;20222;-66
2022/11/12 10:54:33;;;;;;;4.82;3.63;;;29.40;1.00;;;;;;4899020;29;20212;-65
2022/11/12 10:57:24;;;;;;;3.53;3.22;;;29.00;1.00;;;;;;4900480;29;20219;-65
2022/11/12 11:00:13;;;;;;;9.52;3.80;;;28.40;1.00;;;;;;4884711;29;20199;-66
2022/11/12 11:03:02;;;;;;;3.53;2.92;;;27.30;1.00;;;;;;4898716;29;20368;-65
2022/11/12 11:06:24;;;;;;;3.70;3.28;;;28.20;1.00;;;;;;4898975;29;20613;-65
2022/11/12 11:09:18;;;;;;;5.97;3.33;;;28.80;1.00;;;;;;4851859;29;20224;-65
2022/11/12 11:12:20;;;;;;;5.45;3.42;;;27.90;1.00;;;;;;4901533;29;20313;-65
2022/11/12 11:15:14;;;;;;;3.90;3.28;;;28.20;1.00;;;;;;4903813;29;20211;-66
2022/11/12 11:18:00;;;;;;;4.45;3.72;;;27.70;1.00;;;;;;4888774;29;20211;-65
2022/11/12 11:21:14;;;;;;;3.40;3.05;;;28.00;1.00;;;;;;4883885;29;20227;-66
2022/11/12 11:24:21;;;;;;;3.88;3.30;;;27.70;1.00;;;;;;4868910;29;20848;-65
2022/11/12 11:27:31;;;;;;;11.10;4.55;;;27.50;1.00;;;;;;4899739;29;20995;-65
2022/11/12 11:30:20;;;;;;;6.35;3.72;;;27.00;1.00;;;;;;4901748;29;20283;-65
2022/11/12 11:33:30;;;;;;;6.85;4.00;;;26.50;1.00;;;;;;4886833;29;20195;-65
2022/11/12 11:36:38;;;;;;;6.65;4.57;;;25.80;1.00;;;;;;4903107;29;20277;-65
2022/11/12 11:39:41;;;;;;;7.07;3.88;;;24.00;1.00;;;;;;4882312;29;20674;-66
2022/11/12 11:42:55;;;;;;;7.30;4.25;;;25.30;1.00;;;;;;4889371;29;20706;-66
2022/11/12 11:46:09;;;;;;;26.92;11.75;;;25.80;1.00;;;;;;4879596;29;20228;-66
2022/11/12 11:48:55;;;;;;;9.13;4.35;;;26.10;1.00;;;;;;4891632;29;20687;-65
2022/11/12 11:51:43;;;;;;;4.30;3.15;;;25.20;1.00;;;;;;4883177;29;20215;-68
2022/11/12 11:54:58;;;;;;;4.38;3.25;;;22.20;1.00;;;;;;4895307;29;20203;-66
2022/11/12 11:57:52;;;;;;;5.70;3.72;;;22.20;1.00;;;;;;4883479;29;20339;-66
2022/11/12 12:01:12;;;;;;;17.10;11.80;;;23.30;1.00;;;;;;4901587;29;20200;-67
2022/11/12 12:04:25;;;;;;;12.82;8.30;;;21.20;1.00;;;;;;4876310;29;20232;-66
2022/11/12 12:07:19;;;;;;;4.65;3.20;;;21.50;1.00;;;;;;4876766;29;20217;-66
2022/11/12 12:10:35;;;;;;;4.35;3.35;;;22.80;1.00;;;;;;4876623;29;20337;-66
2022/11/12 12:13:57;;;;;;;9.75;6.13;;;22.30;1.00;;;;;;4878206;29;20707;-66
2022/11/12 12:17:05;;;;;;;6.05;3.55;;;23.00;1.00;;;;;;4864764;29;20281;-67
2022/11/12 12:19:51;;;;;;;6.25;3.45;;;22.90;1.00;;;;;;4879686;29;20216;-66
2022/11/12 12:22:58;;;;;;;11.13;5.32;;;22.60;1.00;;;;;;4879621;29;20629;-66
2022/11/12 12:25:45;;;;;;;5.80;3.92;;;21.70;1.00;;;;;;4879161;29;20208;-65
2022/11/12 12:28:40;;;;;;;5.88;4.00;;;21.50;1.00;;;;;;4866904;29;20208;-66
2022/11/12 12:31:35;;;;;;;9.75;5.65;;;19.60;1.00;;;;;;4878713;29;20205;-67
2022/11/12 12:34:32;;;;;;;6.70;4.68;;;18.80;1.00;;;;;;4872672;29;20253;-66
2022/11/12 12:37:29;;;;;;;6.70;4.65;;;19.10;1.00;;;;;;4876738;29;20212;-66
2022/11/12 12:40:19;;;;;;;7.50;4.30;;;18.70;1.00;;;;;;4875754;29;20213;-65
2022/11/12 12:43:23;;;;;;;4.60;2.70;;;18.70;1.00;;;;;;4866491;29;20199;-67
2022/11/12 12:46:13;;;;;;;9.15;3.30;;;19.90;1.00;;;;;;4875969;29;20210;-66
2022/11/12 12:49:00;;;;;;;3.70;2.70;;;20.20;1.00;;;;;;4877320;29;20683;-66
2022/11/12 12:51:46;;;;;;;4.75;3.60;;;20.60;1.00;;;;;;4861443;29;20688;-66
2022/11/12 12:54:50;;;;;;;4.85;2.78;;;20.70;1.00;;;;;;4880085;29;20212;-66
2022/11/12 12:57:39;;;;;;;7.43;3.22;;;20.40;1.00;;;;;;4866925;29;20272;-66
2022/11/12 13:00:38;;;;;;;4.63;3.45;;;20.60;1.00;;;;;;4874156;29;20216;-67
2022/11/12 13:03:52;;;;;;;9.90;3.97;;;19.70;1.00;;;;;;4883265;29;20244;-65
2022/11/12 13:06:51;;;;;;;8.07;3.65;;;20.00;1.00;;;;;;4894672;29;20200;-67
2022/11/12 13:09:37;;;;;;;13.98;7.03;;;19.70;1.00;;;;;;4870811;29;20880;-67
2022/11/12 13:13:02;;;;;;;5.68;3.55;;;19.20;1.00;;;;;;4880010;29;20701;-66
2022/11/12 13:15:52;;;;;;;3.40;3.00;;;18.70;1.00;;;;;;4895720;29;20711;-65
2022/11/12 13:18:41;;;;;;;5.25;3.72;;;18.60;1.00;;;;;;4896851;29;20303;-65
2022/11/12 13:21:27;;;;;;;5.60;3.40;;;18.50;1.00;;;;;;4896125;29;20332;-67
2022/11/12 13:24:13;;;;;;;5.03;3.75;;;18.40;1.00;;;;;;4895287;29;20949;-67
2022/11/12 13:26:58;;;;;;;9.98;3.88;;;18.20;1.00;;;;;;4881929;29;20199;-67
2022/11/12 13:29:46;;;;;;;4.60;3.42;;;17.60;1.00;;;;;;4898412;29;20291;-67
2022/11/12 13:32:33;;;;;;;7.82;3.60;;;17.40;1.00;;;;;;4874870;29;20688;-67
2022/11/12 13:35:23;;;;;;;5.40;4.13;;;16.90;1.00;;;;;;4891504;29;20272;-67
2022/11/12 13:38:14;;;;;;;5.63;3.45;;;16.60;1.00;;;;;;4899612;29;20204;-66
2022/11/12 13:41:08;;;;;;;4.97;3.30;;;16.50;1.00;;;;;;4887069;29;20203;-66
2022/11/12 13:43:55;;;;;;;4.93;3.17;;;16.50;1.00;;;;;;4898892;29;20267;-67
2022/11/12 13:46:43;;;;;;;7.57;4.93;;;16.50;1.00;;;;;;4892818;29;20805;-67
2022/11/12 13:49:29;;;;;;;7.05;3.85;;;16.30;1.00;;;;;;4894239;29;20203;-65
2022/11/12 13:52:17;;;;;;;12.77;5.20;;;16.10;1.00;;;;;;4896882;29;20355;-67
2022/11/12 13:55:06;;;;;;;7.90;4.05;;;16.20;1.00;;;;;;4892885;29;20207;-66
2022/11/12 13:57:55;;;;;;;4.03;3.05;;;16.40;1.00;;;;;;4898438;29;20222;-66
2022/11/12 14:01:00;;;;;;;6.20;4.32;;;16.50;1.00;;;;;;4895684;29;20208;-66
2022/11/12 14:03:48;;;;;;;10.57;5.43;;;16.30;1.00;;;;;;4897106;29;20319;-66
2022/11/12 14:06:37;;;;;;;8.85;4.75;;;16.30;1.00;;;;;;4901669;29;20743;-66
2022/11/12 14:09:34;;;;;;;6.00;3.28;;;16.30;1.00;;;;;;4899669;29;20195;-66
2022/11/12 14:12:20;;;;;;;12.82;6.32;;;16.40;1.00;;;;;;4893436;29;20226;-66
2022/11/12 14:15:35;;;;;;;10.98;6.72;;;16.30;1.00;;;;;;4897571;29;20569;-66
2022/11/12 14:18:46;;;;;;;13.80;7.47;;;16.10;1.00;;;;;;4899595;29;20684;-66
2022/11/12 14:21:32;;;;;;;16.70;8.82;;;15.90;1.00;;;;;;4876881;29;20338;-67
2022/11/12 14:24:17;;;;;;;17.60;9.50;;;15.80;1.00;;;;;;4896194;29;20811;-66
2022/11/12 14:27:03;;;;;;;5.38;4.10;;;15.70;1.00;;;;;;4901145;29;20200;-66
2022/11/12 14:30:02;;;;;;;5.22;3.55;;;15.60;1.00;;;;;;4899559;29;20204;-66
2022/11/12 14:32:53;;;;;;;15.07;8.32;;;15.30;1.00;;;;;;4898550;29;20211;-68
2022/11/12 14:35:39;;;;;;;15.25;12.50;;;15.10;1.00;;;;;;4894550;29;20683;-68
2022/11/12 14:38:37;;;;;;;9.07;4.10;;;15.10;1.00;;;;;;4881631;29;20252;-68
2022/11/12 14:41:35;;;;;;;15.13;10.98;;;14.90;1.00;;;;;;4895731;29;20252;-67
2022/11/12 14:44:32;;;;;;;12.23;6.77;;;14.80;1.00;;;;;;4898050;29;20228;-67
2022/11/12 14:47:17;;;;;;;14.90;8.57;;;14.70;1.00;;;;;;4887014;29;20324;-67
2022/11/12 14:50:03;;;;;;;7.37;4.77;;;14.70;1.00;;;;;;4900677;29;20324;-68
2022/11/12 14:52:54;;;;;;;5.03;3.78;;;14.70;1.00;;;;;;4890751;29;20397;-67
2022/11/12 14:55:42;;;;;;;5.40;3.43;;;14.60;1.00;;;;;;4899471;29;20218;-68
2022/11/12 14:58:28;;;;;;;6.30;3.60;;;14.40;1.00;;;;;;4901660;29;20328;-68
2022/11/12 15:01:34;;;;;;;5.77;3.50;;;14.30;1.00;;;;;;4901868;29;20283;-67
2022/11/12 15:04:51;;;;;;;8.83;3.60;;;14.20;1.00;;;;;;4901300;29;20295;-67
2022/11/12 15:07:52;;;;;;;5.70;2.87;;;14.10;1.00;;;;;;4904372;29;20195;-67
2022/11/12 15:10:43;;;;;;;4.40;3.33;;;14.00;1.00;;;;;;4901927;29;20203;-67
2022/11/12 15:13:38;;;;;;;4.87;3.30;;;13.90;1.00;;;;;;4903181;29;20293;-67
2022/11/12 15:16:27;;;;;;;6.43;3.60;;;13.70;1.00;;;;;;4900833;29;20309;-67
2022/11/12 15:19:13;;;;;;;5.20;3.30;;;13.60;1.00;;;;;;4883833;29;20289;-67
2022/11/12 15:22:00;;;;;;;4.90;3.23;;;13.50;1.00;;;;;;4897850;29;20208;-67